sensor_id;sensor_type;location;lat;lon;timestamp;temperature;humidity
8832;DHT22;4452;50.756;4.472;2022-08-01T00:02:12;19.50;99.90
8832;DHT22;4452;50.756;4.472;2022-08-01T00:04:38;19.50;99.90
8832;DHT22;4452;50.756;4.472;2022-08-01T00:07:03;19.50;99.90
8832;DHT22;4452;50.756;4.472;2022-08-01T00:09:29;19.40;99.90
8832;DHT22;4452;50.756;4.472;2022-08-01T00:11:55;19.50;99.90
8832;DHT22;4452;50.756;4.472;2022-08-01T00:14:20;19.50;99.90
8832;DHT22;4452;50.756;4.472;2022-08-01T00:16:46;19.60;99.90
8832;DHT22;4452;50.756;4.472;2022-08-01T00:19:12;19.50;99.90
8832;DHT22;4452;50.756;4.472;2022-08-01T00:21:37;19.50;99.90
8832;DHT22;4452;50.756;4.472;2022-08-01T00:24:03;19.50;99.90
8832;DHT22;4452;50.756;4.472;2022-08-01T00:26:29;19.60;99.90
8832;DHT22;4452;50.756;4.472;2022-08-01T00:28:55;19.40;99.90
8832;DHT22;4452;50.756;4.472;2022-08-01T00:31:20;19.50;99.90
8832;DHT22;4452;50.756;4.472;2022-08-01T00:33:46;19.50;99.90
8832;DHT22;4452;50.756;4.472;2022-08-01T00:36:12;19.50;99.90
8832;DHT22;4452;50.756;4.472;2022-08-01T00:38:37;19.50;99.90
8832;DHT22;4452;50.756;4.472;2022-08-01T00:41:03;19.40;99.90
8832;DHT22;4452;50.756;4.472;2022-08-01T00:43:29;19.40;99.90
8832;DHT22;4452;50.756;4.472;2022-08-01T00:45:54;19.40;99.90
8832;DHT22;4452;50.756;4.472;2022-08-01T00:48:20;19.40;99.90
8832;DHT22;4452;50.756;4.472;2022-08-01T00:50:46;19.40;99.90
8832;DHT22;4452;50.756;4.472;2022-08-01T00:53:12;19.40;99.90
8832;DHT22;4452;50.756;4.472;2022-08-01T00:55:38;19.40;99.90
8832;DHT22;4452;50.756;4.472;2022-08-01T00:58:04;19.40;99.90
8832;DHT22;4452;50.756;4.472;2022-08-01T01:00:30;19.40;99.90
8832;DHT22;4452;50.756;4.472;2022-08-01T01:02:57;19.40;99.90
8832;DHT22;4452;50.756;4.472;2022-08-01T01:05:23;19.30;99.90
8832;DHT22;4452;50.756;4.472;2022-08-01T01:08:22;19.40;99.90
8832;DHT22;4452;50.756;4.472;2022-08-01T01:10:56;19.30;99.90
8832;DHT22;4452;50.756;4.472;2022-08-01T01:13:37;19.30;99.90
8832;DHT22;4452;50.756;4.472;2022-08-01T01:16:10;19.30;99.90
8832;DHT22;4452;50.756;4.472;2022-08-01T01:18:47;19.30;99.90
8832;DHT22;4452;50.756;4.472;2022-08-01T01:26:59;19.20;99.90
8832;DHT22;4452;50.756;4.472;2022-08-01T01:29:31;19.20;99.90
8832;DHT22;4452;50.756;4.472;2022-08-01T01:32:07;19.20;99.90
8832;DHT22;4452;50.756;4.472;2022-08-01T01:34:37;19.20;99.90
8832;DHT22;4452;50.756;4.472;2022-08-01T01:37:08;19.10;99.90
8832;DHT22;4452;50.756;4.472;2022-08-01T01:39:35;19.20;99.90
8832;DHT22;4452;50.756;4.472;2022-08-01T01:42:04;19.20;99.90
8832;DHT22;4452;50.756;4.472;2022-08-01T01:44:32;19.10;99.90
8832;DHT22;4452;50.756;4.472;2022-08-01T01:46:59;19.10;99.90
8832;DHT22;4452;50.756;4.472;2022-08-01T01:49:27;19.20;99.90
8832;DHT22;4452;50.756;4.472;2022-08-01T01:51:55;19.10;99.90
8832;DHT22;4452;50.756;4.472;2022-08-01T01:54:23;19.10;99.90
8832;DHT22;4452;50.756;4.472;2022-08-01T01:56:50;19.20;99.90
8832;DHT22;4452;50.756;4.472;2022-08-01T01:59:21;19.10;99.90
8832;DHT22;4452;50.756;4.472;2022-08-01T02:01:51;19.10;99.90
8832;DHT22;4452;50.756;4.472;2022-08-01T02:04:20;19.10;99.90
8832;DHT22;4452;50.756;4.472;2022-08-01T02:06:46;19.10;99.90
8832;DHT22;4452;50.756;4.472;2022-08-01T02:09:18;19.00;99.90
8832;DHT22;4452;50.756;4.472;2022-08-01T02:11:47;19.00;99.90
8832;DHT22;4452;50.756;4.472;2022-08-01T02:14:14;19.00;99.90
8832;DHT22;4452;50.756;4.472;2022-08-01T02:16:43;19.00;99.90
8832;DHT22;4452;50.756;4.472;2022-08-01T02:19:09;19.00;99.90
8832;DHT22;4452;50.756;4.472;2022-08-01T02:21:39;19.00;99.90
8832;DHT22;4452;50.756;4.472;2022-08-01T02:24:13;19.00;99.90
8832;DHT22;4452;50.756;4.472;2022-08-01T02:26:43;19.10;99.90
8832;DHT22;4452;50.756;4.472;2022-08-01T02:29:15;19.00;99.90
8832;DHT22;4452;50.756;4.472;2022-08-01T02:31:43;19.00;99.90
8832;DHT22;4452;50.756;4.472;2022-08-01T02:34:16;19.00;99.90
8832;DHT22;4452;50.756;4.472;2022-08-01T02:36:44;19.00;99.90
8832;DHT22;4452;50.756;4.472;2022-08-01T02:39:13;18.90;99.90
8832;DHT22;4452;50.756;4.472;2022-08-01T02:41:47;19.00;99.90
8832;DHT22;4452;50.756;4.472;2022-08-01T02:44:20;19.00;99.90
8832;DHT22;4452;50.756;4.472;2022-08-01T02:46:51;18.90;99.90
8832;DHT22;4452;50.756;4.472;2022-08-01T02:49:20;18.80;99.90
8832;DHT22;4452;50.756;4.472;2022-08-01T02:51:48;18.70;99.90
8832;DHT22;4452;50.756;4.472;2022-08-01T02:54:17;18.80;99.90
8832;DHT22;4452;50.756;4.472;2022-08-01T02:56:44;18.70;99.90
8832;DHT22;4452;50.756;4.472;2022-08-01T02:59:15;18.70;99.90
8832;DHT22;4452;50.756;4.472;2022-08-01T03:01:42;18.80;99.90
8832;DHT22;4452;50.756;4.472;2022-08-01T03:04:11;18.80;99.90
8832;DHT22;4452;50.756;4.472;2022-08-01T03:06:38;18.90;99.90
8832;DHT22;4452;50.756;4.472;2022-08-01T03:09:06;18.70;99.90
8832;DHT22;4452;50.756;4.472;2022-08-01T03:11:33;18.70;99.90
8832;DHT22;4452;50.756;4.472;2022-08-01T03:14:03;18.70;99.90
8832;DHT22;4452;50.756;4.472;2022-08-01T03:16:32;18.70;99.90
8832;DHT22;4452;50.756;4.472;2022-08-01T03:19:00;18.70;99.90
8832;DHT22;4452;50.756;4.472;2022-08-01T03:21:28;18.60;99.90
8832;DHT22;4452;50.756;4.472;2022-08-01T03:23:57;18.70;99.90
8832;DHT22;4452;50.756;4.472;2022-08-01T03:26:28;18.70;99.90
8832;DHT22;4452;50.756;4.472;2022-08-01T03:28:59;18.70;99.90
8832;DHT22;4452;50.756;4.472;2022-08-01T03:31:27;18.60;99.90
8832;DHT22;4452;50.756;4.472;2022-08-01T03:33:54;18.60;99.90
8832;DHT22;4452;50.756;4.472;2022-08-01T03:36:25;18.60;99.90
8832;DHT22;4452;50.756;4.472;2022-08-01T03:38:55;18.50;99.90
8832;DHT22;4452;50.756;4.472;2022-08-01T03:41:24;18.50;99.90
8832;DHT22;4452;50.756;4.472;2022-08-01T03:44:02;18.60;99.90
8832;DHT22;4452;50.756;4.472;2022-08-01T03:46:36;18.60;99.90
8832;DHT22;4452;50.756;4.472;2022-08-01T03:49:10;18.50;99.90
8832;DHT22;4452;50.756;4.472;2022-08-01T03:51:37;18.60;99.90
8832;DHT22;4452;50.756;4.472;2022-08-01T03:54:04;18.50;99.90
8832;DHT22;4452;50.756;4.472;2022-08-01T03:56:31;18.40;99.90
8832;DHT22;4452;50.756;4.472;2022-08-01T03:58:59;18.30;99.90
8832;DHT22;4452;50.756;4.472;2022-08-01T04:01:27;18.30;99.90
8832;DHT22;4452;50.756;4.472;2022-08-01T04:03:53;18.30;99.90
8832;DHT22;4452;50.756;4.472;2022-08-01T04:06:19;18.30;99.90
8832;DHT22;4452;50.756;4.472;2022-08-01T04:08:46;18.20;99.90
8832;DHT22;4452;50.756;4.472;2022-08-01T04:11:24;18.20;99.90
8832;DHT22;4452;50.756;4.472;2022-08-01T04:13:51;18.20;99.90
8832;DHT22;4452;50.756;4.472;2022-08-01T04:16:18;18.10;99.90
8832;DHT22;4452;50.756;4.472;2022-08-01T04:18:44;18.10;99.90
8832;DHT22;4452;50.756;4.472;2022-08-01T04:21:10;18.10;99.90
8832;DHT22;4452;50.756;4.472;2022-08-01T04:23:38;18.10;99.90
8832;DHT22;4452;50.756;4.472;2022-08-01T04:26:07;18.10;99.90
8832;DHT22;4452;50.756;4.472;2022-08-01T04:28:36;18.10;99.90
8832;DHT22;4452;50.756;4.472;2022-08-01T04:31:03;18.10;99.90
8832;DHT22;4452;50.756;4.472;2022-08-01T04:33:33;18.10;99.90
8832;DHT22;4452;50.756;4.472;2022-08-01T04:36:02;18.20;99.90
8832;DHT22;4452;50.756;4.472;2022-08-01T04:38:29;18.10;99.90
8832;DHT22;4452;50.756;4.472;2022-08-01T04:40:56;18.10;99.90
8832;DHT22;4452;50.756;4.472;2022-08-01T04:43:22;18.00;99.90
8832;DHT22;4452;50.756;4.472;2022-08-01T04:45:49;18.10;99.90
8832;DHT22;4452;50.756;4.472;2022-08-01T04:48:17;18.10;99.90
8832;DHT22;4452;50.756;4.472;2022-08-01T04:50:45;18.10;99.90
8832;DHT22;4452;50.756;4.472;2022-08-01T04:53:16;18.10;99.90
8832;DHT22;4452;50.756;4.472;2022-08-01T04:55:43;18.10;99.90
8832;DHT22;4452;50.756;4.472;2022-08-01T04:58:10;18.10;99.90
8832;DHT22;4452;50.756;4.472;2022-08-01T05:00:36;18.10;99.90
8832;DHT22;4452;50.756;4.472;2022-08-01T05:03:02;18.10;99.90
8832;DHT22;4452;50.756;4.472;2022-08-01T05:05:28;18.10;99.90
8832;DHT22;4452;50.756;4.472;2022-08-01T05:07:53;18.20;99.90
8832;DHT22;4452;50.756;4.472;2022-08-01T05:10:19;18.20;99.90
8832;DHT22;4452;50.756;4.472;2022-08-01T05:12:44;18.20;99.90
8832;DHT22;4452;50.756;4.472;2022-08-01T05:15:11;18.20;99.90
8832;DHT22;4452;50.756;4.472;2022-08-01T05:17:37;18.10;99.90
8832;DHT22;4452;50.756;4.472;2022-08-01T05:20:03;18.10;99.90
8832;DHT22;4452;50.756;4.472;2022-08-01T05:22:31;18.10;99.90
8832;DHT22;4452;50.756;4.472;2022-08-01T05:24:57;18.10;99.90
8832;DHT22;4452;50.756;4.472;2022-08-01T05:27:25;18.20;99.90
8832;DHT22;4452;50.756;4.472;2022-08-01T05:29:51;18.30;99.90
8832;DHT22;4452;50.756;4.472;2022-08-01T05:32:17;18.20;99.90
8832;DHT22;4452;50.756;4.472;2022-08-01T05:34:43;18.20;99.90
8832;DHT22;4452;50.756;4.472;2022-08-01T05:37:09;18.20;99.90
8832;DHT22;4452;50.756;4.472;2022-08-01T05:39:35;18.30;99.90
8832;DHT22;4452;50.756;4.472;2022-08-01T05:42:00;18.30;99.90
8832;DHT22;4452;50.756;4.472;2022-08-01T05:44:26;18.30;99.90
8832;DHT22;4452;50.756;4.472;2022-08-01T05:46:52;18.30;99.90
8832;DHT22;4452;50.756;4.472;2022-08-01T05:49:17;18.40;99.90
8832;DHT22;4452;50.756;4.472;2022-08-01T05:51:43;18.40;99.90
8832;DHT22;4452;50.756;4.472;2022-08-01T05:54:09;18.40;99.90
8832;DHT22;4452;50.756;4.472;2022-08-01T05:56:35;18.30;99.90
8832;DHT22;4452;50.756;4.472;2022-08-01T05:59:01;18.40;99.90
8832;DHT22;4452;50.756;4.472;2022-08-01T06:01:28;18.40;99.90
8832;DHT22;4452;50.756;4.472;2022-08-01T06:03:57;18.40;99.90
8832;DHT22;4452;50.756;4.472;2022-08-01T06:06:25;18.50;99.90
8832;DHT22;4452;50.756;4.472;2022-08-01T06:08:53;18.50;99.90
8832;DHT22;4452;50.756;4.472;2022-08-01T06:11:25;18.50;99.90
8832;DHT22;4452;50.756;4.472;2022-08-01T06:13:52;18.70;99.90
8832;DHT22;4452;50.756;4.472;2022-08-01T06:16:19;18.80;99.90
8832;DHT22;4452;50.756;4.472;2022-08-01T06:18:45;18.90;99.90
8832;DHT22;4452;50.756;4.472;2022-08-01T06:21:11;19.10;99.90
8832;DHT22;4452;50.756;4.472;2022-08-01T06:23:36;19.30;99.90
8832;DHT22;4452;50.756;4.472;2022-08-01T06:26:02;19.50;99.90
8832;DHT22;4452;50.756;4.472;2022-08-01T06:28:28;19.70;99.90
8832;DHT22;4452;50.756;4.472;2022-08-01T06:30:54;20.00;99.90
8832;DHT22;4452;50.756;4.472;2022-08-01T06:33:20;20.10;99.90
8832;DHT22;4452;50.756;4.472;2022-08-01T06:35:46;20.10;99.90
8832;DHT22;4452;50.756;4.472;2022-08-01T06:38:11;20.10;99.90
8832;DHT22;4452;50.756;4.472;2022-08-01T06:40:37;19.80;99.90
8832;DHT22;4452;50.756;4.472;2022-08-01T06:43:03;19.50;99.90
8832;DHT22;4452;50.756;4.472;2022-08-01T06:45:29;19.70;99.90
8832;DHT22;4452;50.756;4.472;2022-08-01T06:47:55;19.90;99.90
8832;DHT22;4452;50.756;4.472;2022-08-01T06:50:20;19.80;99.90
8832;DHT22;4452;50.756;4.472;2022-08-01T06:52:46;19.80;99.90
8832;DHT22;4452;50.756;4.472;2022-08-01T06:55:12;19.50;99.90
8832;DHT22;4452;50.756;4.472;2022-08-01T06:57:51;19.60;99.90
8832;DHT22;4452;50.756;4.472;2022-08-01T07:00:20;20.00;99.90
8832;DHT22;4452;50.756;4.472;2022-08-01T07:02:52;20.20;99.90
8832;DHT22;4452;50.756;4.472;2022-08-01T07:05:19;20.50;99.90
8832;DHT22;4452;50.756;4.472;2022-08-01T07:07:44;20.50;99.90
8832;DHT22;4452;50.756;4.472;2022-08-01T07:10:10;20.40;99.90
8832;DHT22;4452;50.756;4.472;2022-08-01T07:12:36;20.80;99.90
8832;DHT22;4452;50.756;4.472;2022-08-01T07:15:08;20.90;99.90
8832;DHT22;4452;50.756;4.472;2022-08-01T07:17:41;20.90;99.90
8832;DHT22;4452;50.756;4.472;2022-08-01T07:20:09;20.90;99.90
8832;DHT22;4452;50.756;4.472;2022-08-01T07:22:35;20.90;99.90
8832;DHT22;4452;50.756;4.472;2022-08-01T07:25:01;20.40;99.90
8832;DHT22;4452;50.756;4.472;2022-08-01T07:27:27;20.30;99.90
8832;DHT22;4452;50.756;4.472;2022-08-01T07:29:53;20.70;99.90
8832;DHT22;4452;50.756;4.472;2022-08-01T07:32:18;20.70;99.90
8832;DHT22;4452;50.756;4.472;2022-08-01T07:34:44;20.80;99.90
8832;DHT22;4452;50.756;4.472;2022-08-01T07:37:10;21.00;99.90
8832;DHT22;4452;50.756;4.472;2022-08-01T07:39:35;21.10;99.90
8832;DHT22;4452;50.756;4.472;2022-08-01T07:42:01;21.20;99.90
8832;DHT22;4452;50.756;4.472;2022-08-01T07:44:27;21.10;99.90
8832;DHT22;4452;50.756;4.472;2022-08-01T07:46:52;21.20;99.90
8832;DHT22;4452;50.756;4.472;2022-08-01T07:49:18;21.40;99.90
8832;DHT22;4452;50.756;4.472;2022-08-01T07:51:44;21.40;99.90
8832;DHT22;4452;50.756;4.472;2022-08-01T07:54:09;21.60;99.90
8832;DHT22;4452;50.756;4.472;2022-08-01T07:56:35;21.10;99.90
8832;DHT22;4452;50.756;4.472;2022-08-01T07:59:01;21.10;99.90
8832;DHT22;4452;50.756;4.472;2022-08-01T08:01:26;21.50;99.90
8832;DHT22;4452;50.756;4.472;2022-08-01T08:03:52;21.60;99.90
8832;DHT22;4452;50.756;4.472;2022-08-01T08:06:18;21.70;99.90
8832;DHT22;4452;50.756;4.472;2022-08-01T08:08:44;21.90;99.90
8832;DHT22;4452;50.756;4.472;2022-08-01T08:11:09;22.00;99.90
8832;DHT22;4452;50.756;4.472;2022-08-01T08:13:35;22.20;99.90
8832;DHT22;4452;50.756;4.472;2022-08-01T08:16:01;22.10;99.90
8832;DHT22;4452;50.756;4.472;2022-08-01T08:18:27;22.20;99.90
8832;DHT22;4452;50.756;4.472;2022-08-01T08:20:52;22.30;99.90
8832;DHT22;4452;50.756;4.472;2022-08-01T08:23:18;22.00;99.90
8832;DHT22;4452;50.756;4.472;2022-08-01T08:26:02;22.20;99.90
8832;DHT22;4452;50.756;4.472;2022-08-01T08:28:28;22.30;99.90
8832;DHT22;4452;50.756;4.472;2022-08-01T08:30:54;22.50;99.90
8832;DHT22;4452;50.756;4.472;2022-08-01T08:33:20;23.20;99.90
8832;DHT22;4452;50.756;4.472;2022-08-01T08:35:46;23.60;99.90
8832;DHT22;4452;50.756;4.472;2022-08-01T08:38:12;23.10;99.90
8832;DHT22;4452;50.756;4.472;2022-08-01T08:40:38;23.00;99.90
8832;DHT22;4452;50.756;4.472;2022-08-01T08:43:05;22.60;99.90
8832;DHT22;4452;50.756;4.472;2022-08-01T08:45:31;22.40;99.90
8832;DHT22;4452;50.756;4.472;2022-08-01T08:47:57;22.70;99.90
8832;DHT22;4452;50.756;4.472;2022-08-01T08:50:25;22.70;99.90
8832;DHT22;4452;50.756;4.472;2022-08-01T08:52:52;22.50;99.90
8832;DHT22;4452;50.756;4.472;2022-08-01T08:55:19;22.90;99.90
8832;DHT22;4452;50.756;4.472;2022-08-01T08:57:45;23.00;99.90
8832;DHT22;4452;50.756;4.472;2022-08-01T09:00:13;23.10;99.90
8832;DHT22;4452;50.756;4.472;2022-08-01T09:02:44;22.50;99.90
8832;DHT22;4452;50.756;4.472;2022-08-01T09:05:11;22.40;99.90
8832;DHT22;4452;50.756;4.472;2022-08-01T09:07:37;23.00;99.90
8832;DHT22;4452;50.756;4.472;2022-08-01T09:10:04;22.70;99.90
8832;DHT22;4452;50.756;4.472;2022-08-01T09:12:30;22.80;99.90
8832;DHT22;4452;50.756;4.472;2022-08-01T09:14:55;23.40;99.90
8832;DHT22;4452;50.756;4.472;2022-08-01T09:17:22;23.70;99.90
8832;DHT22;4452;50.756;4.472;2022-08-01T09:19:50;23.90;99.90
8832;DHT22;4452;50.756;4.472;2022-08-01T09:22:22;23.50;99.90
8832;DHT22;4452;50.756;4.472;2022-08-01T09:25:07;23.70;99.90
8832;DHT22;4452;50.756;4.472;2022-08-01T09:27:34;23.80;99.90
8832;DHT22;4452;50.756;4.472;2022-08-01T09:30:14;24.30;99.90
8832;DHT22;4452;50.756;4.472;2022-08-01T09:32:53;23.90;99.90
8832;DHT22;4452;50.756;4.472;2022-08-01T09:35:25;23.60;99.90
8832;DHT22;4452;50.756;4.472;2022-08-01T09:37:51;23.30;99.90
8832;DHT22;4452;50.756;4.472;2022-08-01T09:40:16;22.90;99.90
8832;DHT22;4452;50.756;4.472;2022-08-01T09:42:42;23.60;99.90
8832;DHT22;4452;50.756;4.472;2022-08-01T09:45:08;23.80;99.90
8832;DHT22;4452;50.756;4.472;2022-08-01T09:47:40;23.60;99.90
8832;DHT22;4452;50.756;4.472;2022-08-01T09:50:06;23.50;99.90
8832;DHT22;4452;50.756;4.472;2022-08-01T09:52:32;23.40;99.90
8832;DHT22;4452;50.756;4.472;2022-08-01T09:55:04;23.50;99.90
8832;DHT22;4452;50.756;4.472;2022-08-01T09:57:30;24.10;99.90
8832;DHT22;4452;50.756;4.472;2022-08-01T09:59:58;24.20;99.90
8832;DHT22;4452;50.756;4.472;2022-08-01T10:02:38;24.50;99.90
8832;DHT22;4452;50.756;4.472;2022-08-01T10:05:09;24.80;99.90
8832;DHT22;4452;50.756;4.472;2022-08-01T10:07:36;24.40;99.90
8832;DHT22;4452;50.756;4.472;2022-08-01T10:10:19;24.20;99.90
8832;DHT22;4452;50.756;4.472;2022-08-01T10:12:45;24.80;99.90
8832;DHT22;4452;50.756;4.472;2022-08-01T10:15:16;24.70;99.90
8832;DHT22;4452;50.756;4.472;2022-08-01T10:17:57;23.90;99.90
8832;DHT22;4452;50.756;4.472;2022-08-01T10:20:25;23.80;99.90
8832;DHT22;4452;50.756;4.472;2022-08-01T10:22:55;24.40;99.90
8832;DHT22;4452;50.756;4.472;2022-08-01T10:25:23;24.60;99.90
8832;DHT22;4452;50.756;4.472;2022-08-01T10:27:53;24.60;99.90
8832;DHT22;4452;50.756;4.472;2022-08-01T10:30:23;24.50;99.90
8832;DHT22;4452;50.756;4.472;2022-08-01T10:32:50;23.90;99.90
8832;DHT22;4452;50.756;4.472;2022-08-01T10:35:18;24.10;99.90
8832;DHT22;4452;50.756;4.472;2022-08-01T10:37:45;24.80;99.90
8832;DHT22;4452;50.756;4.472;2022-08-01T10:40:14;24.70;99.90
8832;DHT22;4452;50.756;4.472;2022-08-01T10:42:44;24.30;99.90
8832;DHT22;4452;50.756;4.472;2022-08-01T10:45:13;24.70;99.90
8832;DHT22;4452;50.756;4.472;2022-08-01T10:50:52;26.00;99.90
8832;DHT22;4452;50.756;4.472;2022-08-01T10:53:23;25.70;99.90
8832;DHT22;4452;50.756;4.472;2022-08-01T11:01:23;26.10;99.90
8832;DHT22;4452;50.756;4.472;2022-08-01T11:09:03;26.00;99.90
8832;DHT22;4452;50.756;4.472;2022-08-01T11:11:29;25.90;99.90
8832;DHT22;4452;50.756;4.472;2022-08-01T11:16:29;24.60;99.90
8832;DHT22;4452;50.756;4.472;2022-08-01T11:18:56;25.40;99.90
8832;DHT22;4452;50.756;4.472;2022-08-01T11:21:22;25.90;99.90
8832;DHT22;4452;50.756;4.472;2022-08-01T11:23:52;26.10;99.90
8832;DHT22;4452;50.756;4.472;2022-08-01T11:26:21;26.30;99.90
8832;DHT22;4452;50.756;4.472;2022-08-01T11:29:12;26.20;99.90
8832;DHT22;4452;50.756;4.472;2022-08-01T11:31:38;26.30;99.90
8832;DHT22;4452;50.756;4.472;2022-08-01T11:34:04;25.50;99.90
8832;DHT22;4452;50.756;4.472;2022-08-01T11:36:30;26.60;99.90
8832;DHT22;4452;50.756;4.472;2022-08-01T11:41:33;26.60;99.90
8832;DHT22;4452;50.756;4.472;2022-08-01T11:46:52;26.40;99.90
8832;DHT22;4452;50.756;4.472;2022-08-01T11:52:07;26.60;99.90
8832;DHT22;4452;50.756;4.472;2022-08-01T11:54:56;26.80;99.90
8832;DHT22;4452;50.756;4.472;2022-08-01T11:57:28;27.00;99.90
8832;DHT22;4452;50.756;4.472;2022-08-01T12:00:02;27.30;99.90
8832;DHT22;4452;50.756;4.472;2022-08-01T12:02:30;26.70;99.90
8832;DHT22;4452;50.756;4.472;2022-08-01T12:07:24;26.50;99.90
8832;DHT22;4452;50.756;4.472;2022-08-01T12:12:35;26.20;99.90
8832;DHT22;4452;50.756;4.472;2022-08-01T12:15:04;26.80;99.90
8832;DHT22;4452;50.756;4.472;2022-08-01T12:17:39;26.80;99.90
8832;DHT22;4452;50.756;4.472;2022-08-01T12:20:12;26.90;99.90
8832;DHT22;4452;50.756;4.472;2022-08-01T12:22:38;26.70;99.90
8832;DHT22;4452;50.756;4.472;2022-08-01T12:25:17;26.30;99.90
8832;DHT22;4452;50.756;4.472;2022-08-01T12:27:45;26.20;99.90
8832;DHT22;4452;50.756;4.472;2022-08-01T12:30:13;25.80;99.90
8832;DHT22;4452;50.756;4.472;2022-08-01T12:32:41;25.80;99.90
8832;DHT22;4452;50.756;4.472;2022-08-01T12:35:09;26.40;99.90
8832;DHT22;4452;50.756;4.472;2022-08-01T12:37:43;26.30;99.90
8832;DHT22;4452;50.756;4.472;2022-08-01T12:42:47;27.10;99.90
8832;DHT22;4452;50.756;4.472;2022-08-01T12:45:32;27.20;99.90
8832;DHT22;4452;50.756;4.472;2022-08-01T12:48:00;27.00;99.90
8832;DHT22;4452;50.756;4.472;2022-08-01T12:50:30;27.40;99.90
8832;DHT22;4452;50.756;4.472;2022-08-01T12:52:57;27.00;99.90
8832;DHT22;4452;50.756;4.472;2022-08-01T12:55:24;26.90;99.90
8832;DHT22;4452;50.756;4.472;2022-08-01T12:58:07;27.30;99.90
8832;DHT22;4452;50.756;4.472;2022-08-01T13:00:34;28.10;99.90
8832;DHT22;4452;50.756;4.472;2022-08-01T13:03:11;28.60;99.90
8832;DHT22;4452;50.756;4.472;2022-08-01T13:05:57;28.30;99.90
8832;DHT22;4452;50.756;4.472;2022-08-01T13:08:33;28.80;99.90
8832;DHT22;4452;50.756;4.472;2022-08-01T13:11:07;27.90;99.90
8832;DHT22;4452;50.756;4.472;2022-08-01T13:16:08;28.10;99.90
8832;DHT22;4452;50.756;4.472;2022-08-01T13:18:35;28.60;99.90
8832;DHT22;4452;50.756;4.472;2022-08-01T13:21:18;28.90;99.90
8832;DHT22;4452;50.756;4.472;2022-08-01T13:24:22;28.50;99.90
8832;DHT22;4452;50.756;4.472;2022-08-01T13:26:49;28.10;99.90
8832;DHT22;4452;50.756;4.472;2022-08-01T13:29:20;28.20;99.90
8832;DHT22;4452;50.756;4.472;2022-08-01T13:31:48;28.30;99.90
8832;DHT22;4452;50.756;4.472;2022-08-01T13:34:15;28.10;99.90
8832;DHT22;4452;50.756;4.472;2022-08-01T13:36:41;27.60;99.90
8832;DHT22;4452;50.756;4.472;2022-08-01T13:39:07;26.90;99.90
8832;DHT22;4452;50.756;4.472;2022-08-01T13:41:52;26.60;99.90
8832;DHT22;4452;50.756;4.472;2022-08-01T13:44:18;26.30;99.90
8832;DHT22;4452;50.756;4.472;2022-08-01T13:46:44;26.40;99.90
8832;DHT22;4452;50.756;4.472;2022-08-01T13:49:12;26.20;99.90
8832;DHT22;4452;50.756;4.472;2022-08-01T13:51:39;26.30;99.90
8832;DHT22;4452;50.756;4.472;2022-08-01T13:54:05;26.20;99.90
8832;DHT22;4452;50.756;4.472;2022-08-01T13:56:31;26.30;99.90
8832;DHT22;4452;50.756;4.472;2022-08-01T13:58:57;26.00;99.90
8832;DHT22;4452;50.756;4.472;2022-08-01T14:01:23;25.80;99.90
8832;DHT22;4452;50.756;4.472;2022-08-01T14:03:50;26.30;99.90
8832;DHT22;4452;50.756;4.472;2022-08-01T14:06:16;26.20;99.90
8832;DHT22;4452;50.756;4.472;2022-08-01T14:08:43;25.70;99.90
8832;DHT22;4452;50.756;4.472;2022-08-01T14:11:08;25.80;99.90
8832;DHT22;4452;50.756;4.472;2022-08-01T14:13:34;25.90;99.90
8832;DHT22;4452;50.756;4.472;2022-08-01T14:16:02;26.00;99.90
8832;DHT22;4452;50.756;4.472;2022-08-01T14:18:28;26.50;99.90
8832;DHT22;4452;50.756;4.472;2022-08-01T14:20:53;27.20;99.90
8832;DHT22;4452;50.756;4.472;2022-08-01T14:23:19;28.40;99.90
8832;DHT22;4452;50.756;4.472;2022-08-01T14:25:45;28.50;99.90
8832;DHT22;4452;50.756;4.472;2022-08-01T14:28:10;27.90;99.90
8832;DHT22;4452;50.756;4.472;2022-08-01T14:30:36;27.20;99.90
8832;DHT22;4452;50.756;4.472;2022-08-01T14:33:02;26.60;99.90
8832;DHT22;4452;50.756;4.472;2022-08-01T14:35:28;26.40;99.90
8832;DHT22;4452;50.756;4.472;2022-08-01T14:37:54;27.10;99.90
8832;DHT22;4452;50.756;4.472;2022-08-01T14:40:19;27.80;99.90
8832;DHT22;4452;50.756;4.472;2022-08-01T14:42:45;28.10;99.90
8832;DHT22;4452;50.756;4.472;2022-08-01T14:45:12;29.00;99.90
8832;DHT22;4452;50.756;4.472;2022-08-01T14:47:40;29.00;99.90
8832;DHT22;4452;50.756;4.472;2022-08-01T14:50:12;28.80;99.90
8832;DHT22;4452;50.756;4.472;2022-08-01T14:52:39;29.60;99.90
8832;DHT22;4452;50.756;4.472;2022-08-01T14:55:06;29.50;99.90
8832;DHT22;4452;50.756;4.472;2022-08-01T14:57:32;31.20;99.90
8832;DHT22;4452;50.756;4.472;2022-08-01T14:59:58;31.50;99.90
8832;DHT22;4452;50.756;4.472;2022-08-01T15:02:24;33.00;99.40
8832;DHT22;4452;50.756;4.472;2022-08-01T15:04:49;33.60;97.10
8832;DHT22;4452;50.756;4.472;2022-08-01T15:07:16;31.80;96.60
8832;DHT22;4452;50.756;4.472;2022-08-01T15:09:42;30.60;98.70
8832;DHT22;4452;50.756;4.472;2022-08-01T15:12:08;31.40;99.00
8832;DHT22;4452;50.756;4.472;2022-08-01T15:14:34;32.30;97.00
8832;DHT22;4452;50.756;4.472;2022-08-01T15:17:22;33.30;95.90
8832;DHT22;4452;50.756;4.472;2022-08-01T15:19:50;33.00;95.20
8832;DHT22;4452;50.756;4.472;2022-08-01T15:22:16;33.00;94.40
8832;DHT22;4452;50.756;4.472;2022-08-01T15:24:42;31.80;95.50
8832;DHT22;4452;50.756;4.472;2022-08-01T15:27:09;30.20;97.10
8832;DHT22;4452;50.756;4.472;2022-08-01T15:29:35;28.80;99.30
8832;DHT22;4452;50.756;4.472;2022-08-01T15:32:01;27.50;99.90
8832;DHT22;4452;50.756;4.472;2022-08-01T15:34:28;28.00;99.90
8832;DHT22;4452;50.756;4.472;2022-08-01T15:36:54;28.60;99.90
8832;DHT22;4452;50.756;4.472;2022-08-01T15:39:20;29.60;99.10
8832;DHT22;4452;50.756;4.472;2022-08-01T15:41:45;28.30;99.80
8832;DHT22;4452;50.756;4.472;2022-08-01T15:44:11;27.60;99.90
8832;DHT22;4452;50.756;4.472;2022-08-01T15:46:37;27.60;99.90
8832;DHT22;4452;50.756;4.472;2022-08-01T15:49:05;28.30;99.90
8832;DHT22;4452;50.756;4.472;2022-08-01T15:51:32;27.70;99.90
8832;DHT22;4452;50.756;4.472;2022-08-01T15:53:58;27.10;99.90
8832;DHT22;4452;50.756;4.472;2022-08-01T15:56:28;26.80;99.90
8832;DHT22;4452;50.756;4.472;2022-08-01T15:58:54;28.90;99.90
8832;DHT22;4452;50.756;4.472;2022-08-01T16:01:20;30.00;99.50
8832;DHT22;4452;50.756;4.472;2022-08-01T16:03:46;30.10;99.50
8832;DHT22;4452;50.756;4.472;2022-08-01T16:06:12;30.00;99.10
8832;DHT22;4452;50.756;4.472;2022-08-01T16:08:37;30.30;97.60
8832;DHT22;4452;50.756;4.472;2022-08-01T16:11:03;29.80;98.70
8832;DHT22;4452;50.756;4.472;2022-08-01T16:13:29;29.10;98.40
8832;DHT22;4452;50.756;4.472;2022-08-01T16:15:55;28.80;98.30
8832;DHT22;4452;50.756;4.472;2022-08-01T16:18:20;28.50;98.80
8832;DHT22;4452;50.756;4.472;2022-08-01T16:20:47;29.30;98.10
8832;DHT22;4452;50.756;4.472;2022-08-01T16:23:14;29.30;98.80
8832;DHT22;4452;50.756;4.472;2022-08-01T16:25:40;30.70;97.30
8832;DHT22;4452;50.756;4.472;2022-08-01T16:28:05;31.00;96.60
8832;DHT22;4452;50.756;4.472;2022-08-01T16:30:31;31.30;95.60
8832;DHT22;4452;50.756;4.472;2022-08-01T16:32:57;31.60;94.70
8832;DHT22;4452;50.756;4.472;2022-08-01T16:35:23;30.30;96.60
8832;DHT22;4452;50.756;4.472;2022-08-01T16:37:49;29.00;98.40
8832;DHT22;4452;50.756;4.472;2022-08-01T16:40:15;28.10;99.90
8832;DHT22;4452;50.756;4.472;2022-08-01T16:42:41;27.80;99.90
8832;DHT22;4452;50.756;4.472;2022-08-01T16:45:07;28.60;99.00
8832;DHT22;4452;50.756;4.472;2022-08-01T16:47:33;29.70;98.10
8832;DHT22;4452;50.756;4.472;2022-08-01T16:49:58;30.70;98.00